BI03 weather

Biella-Cerrione Airport
Biella (BI), Piedmont, Italy

Public forecast

Using degrees Celsius for public forecast. Weather courtesy of forecast.io.

METAR (pilot weather report)

Report is more than 6 hours old.

Closest report is Cameri Air Base [MIL], 23.9 nm (44.3 km) E. Retrieved 2019/05/17 17:55 UTC (2 days ago):

LIMN 171755Z 29005KT 4500 -RA BR BKN010 BKN040 12/12 Q1008

TAF (pilot weather forecast)

Forecast is more than 12 hours old.

Closest forecast is Cameri Air Base [MIL], 23.9 nm (44.3 km) E. Retrieved 2010/11/18 12:24 UTC (9 years ago):

TAF TAF LIMN 181100Z 1812/1921 VRB03KT 1500 RA BR BKN030